createdAt,value
2018-05-09T00:02:00.790Z,3.00
2018-05-09T00:07:04.303Z,2.30
2018-05-09T00:12:07.372Z,5.23
2018-05-09T00:17:11.976Z,3.80
2018-05-09T00:22:15.734Z,3.50
2018-05-09T00:27:18.865Z,5.17
2018-05-09T00:32:22.108Z,5.57
2018-05-09T00:37:25.513Z,3.40
2018-05-09T00:42:28.608Z,2.70
2018-05-09T00:47:31.454Z,3.77
2018-05-09T00:52:34.379Z,2.63
2018-05-09T00:57:37.184Z,2.67
2018-05-09T01:02:40.251Z,4.33
2018-05-09T01:07:43.425Z,8.20
2018-05-09T01:12:46.477Z,5.40
2018-05-09T01:17:49.296Z,3.57
2018-05-09T01:22:52.600Z,2.90
2018-05-09T01:27:55.791Z,3.00
2018-05-09T01:32:59.346Z,3.10
2018-05-09T01:38:03.212Z,4.80
2018-05-09T01:43:06.297Z,5.90
2018-05-09T01:48:09.180Z,4.67
2018-05-09T01:53:12.377Z,2.90
2018-05-09T01:58:15.230Z,2.80
2018-05-09T02:03:18.383Z,3.00
2018-05-09T02:08:21.369Z,2.70
2018-05-09T02:13:24.634Z,5.23
2018-05-09T02:18:28.960Z,3.13
2018-05-09T02:23:32.538Z,3.70
2018-05-09T02:28:35.397Z,2.97
2018-05-09T02:33:38.590Z,3.00
2018-05-09T02:38:41.461Z,4.00
2018-05-09T02:43:44.367Z,3.70
2018-05-09T02:48:47.243Z,5.17
2018-05-09T02:53:50.271Z,3.40
2018-05-09T02:58:53.126Z,3.37
2018-05-09T03:03:56.272Z,5.90
2018-05-09T03:08:59.925Z,7.37
2018-05-09T03:14:03.061Z,3.40
2018-05-09T03:19:05.911Z,4.00
2018-05-09T03:24:08.987Z,11.10
2018-05-09T03:29:11.828Z,5.60
2018-05-09T03:34:14.930Z,12.90
2018-05-09T03:39:18.914Z,6.57
2018-05-09T03:44:21.761Z,8.70
2018-05-09T03:49:24.611Z,4.33
2018-05-09T03:54:27.949Z,3.40
2018-05-09T03:59:31.257Z,4.17
2018-05-09T04:05:43.768Z,4.63
2018-05-09T04:10:47.714Z,3.73
2018-05-09T04:15:50.928Z,3.83
2018-05-09T04:20:53.821Z,4.13
2018-05-09T04:25:56.658Z,3.87
2018-05-09T04:30:59.497Z,6.00
2018-05-09T04:36:02.751Z,13.20
2018-05-09T04:41:05.766Z,6.03
2018-05-09T04:46:08.647Z,3.80
2018-05-09T04:51:11.518Z,3.40
2018-05-09T04:56:14.387Z,3.97
2018-05-09T05:01:17.244Z,9.23
2018-05-09T05:06:20.109Z,8.80
2018-05-09T05:11:22.993Z,11.73
2018-05-09T05:16:25.843Z,4.03
2018-05-09T05:21:28.717Z,4.00
2018-05-09T05:26:31.908Z,6.60
2018-05-09T05:31:35.107Z,4.70
2018-05-09T05:36:37.959Z,5.87
2018-05-09T05:41:40.916Z,14.90
2018-05-09T05:46:43.761Z,4.57
2018-05-09T05:51:46.694Z,4.57
2018-05-09T05:56:49.764Z,4.90
2018-05-09T06:01:52.945Z,4.50
2018-05-09T06:06:56.993Z,6.93
2018-05-09T06:12:00.142Z,10.90
2018-05-09T06:17:03.213Z,4.60
2018-05-09T06:22:06.153Z,6.57
2018-05-09T06:27:09.105Z,4.90
2018-05-09T06:32:12.295Z,10.87
2018-05-09T06:37:15.310Z,9.57
2018-05-09T06:42:18.700Z,4.80
2018-05-09T06:47:21.714Z,5.23
2018-05-09T06:52:24.757Z,4.77
2018-05-09T06:57:27.939Z,5.47
2018-05-09T07:02:30.922Z,4.40
2018-05-09T07:07:34.184Z,7.30
2018-05-09T07:12:37.167Z,4.63
2018-05-09T07:17:40.105Z,6.80
2018-05-09T07:22:43.012Z,4.80
2018-05-09T07:27:46.345Z,5.17
2018-05-09T07:32:49.856Z,4.10
2018-05-09T07:37:53.383Z,4.47
2018-05-09T07:43:59.150Z,4.30
2018-05-09T07:49:02.156Z,3.97
2018-05-09T07:54:05.148Z,8.27
2018-05-09T07:59:08.338Z,7.90
2018-05-09T08:04:11.261Z,9.40
2018-05-09T08:09:14.785Z,9.30
2018-05-09T08:14:17.991Z,7.30
2018-05-09T08:19:21.036Z,9.00
2018-05-09T08:24:24.345Z,9.90
2018-05-09T08:29:27.672Z,8.70
2018-05-09T08:34:30.976Z,9.17
2018-05-09T08:39:33.885Z,7.70
2018-05-09T08:44:36.818Z,8.43
2018-05-09T08:49:39.712Z,11.83
2018-05-09T08:54:42.841Z,9.70
2018-05-09T08:59:46.021Z,10.00
2018-05-09T09:04:49.174Z,12.57
2018-05-09T09:09:52.022Z,10.40
2018-05-09T09:14:54.955Z,11.80
2018-05-09T09:19:57.946Z,10.90
2018-05-09T09:25:00.815Z,11.53
2018-05-09T09:30:05.032Z,12.63
2018-05-09T09:35:08.206Z,11.33
2018-05-09T09:40:11.138Z,11.13
2018-05-09T09:45:14.481Z,11.40
2018-05-09T09:50:17.416Z,13.07
2018-05-09T09:55:20.599Z,12.40
2018-05-09T10:00:24.959Z,11.17
2018-05-09T10:05:27.977Z,10.40
2018-05-09T10:10:30.969Z,5.13
2018-05-09T10:15:33.947Z,4.83
2018-05-09T10:20:37.944Z,5.83
2018-05-09T10:25:40.905Z,4.57
2018-05-09T10:30:44.297Z,4.90
2018-05-09T10:35:47.312Z,5.27
2018-05-09T10:40:50.512Z,4.00
2018-05-09T10:45:53.662Z,6.47
2018-05-09T10:50:56.658Z,5.40
2018-05-09T10:55:59.633Z,6.17
2018-05-09T11:01:02.581Z,4.67
2018-05-09T11:06:11.511Z,4.23
2018-05-09T11:11:14.947Z,5.10
2018-05-09T11:16:17.896Z,4.40
2018-05-09T11:21:21.150Z,6.10
2018-05-09T11:32:30.062Z,3.60
2018-05-09T11:37:33.143Z,3.77
2018-05-09T11:42:36.769Z,4.40
2018-05-09T11:47:39.764Z,3.50
2018-05-09T11:52:43.085Z,3.07
2018-05-09T11:57:46.004Z,3.33
2018-05-09T12:02:49.387Z,3.30
2018-05-09T12:07:52.364Z,3.63
2018-05-09T12:12:55.285Z,3.20
2018-05-09T12:17:58.541Z,3.70
2018-05-09T12:23:02.179Z,3.43
2018-05-09T12:28:09.995Z,3.83
2018-05-09T12:33:13.585Z,3.30
2018-05-09T12:38:16.471Z,3.97
2018-05-09T12:43:23.503Z,3.70
2018-05-09T12:48:26.880Z,3.80
2018-05-09T12:53:30.157Z,3.10
2018-05-09T12:58:33.060Z,3.20
2018-05-09T13:03:35.972Z,3.73
2018-05-09T13:08:39.156Z,2.83
2018-05-09T13:13:42.328Z,2.50
2018-05-09T13:18:46.636Z,2.90
2018-05-09T13:23:50.947Z,2.70
2018-05-09T13:28:56.508Z,3.03
2018-05-09T13:33:59.752Z,3.67
2018-05-09T13:39:12.703Z,3.17
2018-05-09T13:44:16.064Z,3.50
2018-05-09T13:49:19.440Z,2.97
2018-05-09T13:54:22.347Z,3.17
2018-05-09T13:59:40.297Z,3.90
2018-05-09T14:04:43.529Z,3.07
2018-05-09T14:09:46.521Z,3.40
2018-05-09T14:14:49.413Z,3.80
2018-05-09T14:19:52.597Z,3.50
2018-05-09T14:24:55.527Z,3.87
2018-05-09T14:29:58.471Z,3.53
2018-05-09T14:35:01.896Z,5.07
2018-05-09T14:40:04.827Z,4.07
2018-05-09T14:45:07.803Z,3.70
2018-05-09T14:50:11.041Z,5.03
2018-05-09T14:55:14.014Z,4.10
2018-05-09T15:00:16.966Z,4.33
2018-05-09T15:05:20.157Z,3.10
2018-05-09T15:10:22.981Z,4.00
2018-05-09T15:15:25.833Z,4.50
2018-05-09T15:20:28.881Z,4.47
2018-05-09T15:25:31.812Z,3.27
2018-05-09T15:30:34.646Z,4.13
2018-05-09T15:35:37.884Z,4.83
2018-05-09T15:40:40.756Z,4.10
2018-05-09T15:45:43.610Z,3.90
2018-05-09T15:50:46.807Z,4.67
2018-05-09T15:55:49.770Z,4.33
2018-05-09T16:00:52.952Z,4.60
2018-05-09T16:05:56.232Z,4.50
2018-05-09T16:10:59.213Z,4.37
2018-05-09T16:16:02.242Z,4.50
2018-05-09T16:21:05.415Z,5.10
2018-05-09T16:26:08.331Z,3.77
2018-05-09T16:31:11.529Z,5.10
2018-05-09T16:36:14.632Z,5.07
2018-05-09T16:41:17.655Z,4.37
2018-05-09T16:46:20.646Z,4.73
2018-05-09T16:51:23.959Z,3.27
2018-05-09T16:56:26.962Z,4.07
2018-05-09T17:01:31.407Z,4.13
2018-05-09T17:06:34.668Z,4.27
2018-05-09T17:11:37.664Z,3.77
2018-05-09T17:16:40.809Z,3.80
2018-05-09T17:21:57.103Z,4.00
2018-05-09T17:27:00.378Z,3.87
2018-05-09T17:32:03.698Z,4.10
2018-05-09T17:37:07.006Z,3.20
2018-05-09T17:42:10.373Z,2.70
2018-05-09T17:47:13.422Z,3.03
2018-05-09T17:52:16.663Z,2.37
2018-05-09T17:57:20.060Z,3.37
2018-05-09T18:02:24.103Z,2.60
2018-05-09T18:07:27.408Z,3.70
2018-05-09T18:12:30.735Z,3.43
2018-05-09T18:17:33.668Z,3.73
2018-05-09T18:22:36.847Z,3.20
2018-05-09T18:27:39.754Z,3.30
2018-05-09T18:32:42.649Z,3.60
2018-05-09T18:37:45.872Z,2.77
2018-05-09T18:42:48.758Z,3.00
2018-05-09T18:47:56.051Z,2.90
2018-05-09T18:53:00.189Z,3.40
2018-05-09T18:58:03.735Z,2.87
2018-05-09T19:03:06.896Z,3.50
2018-05-09T19:08:10.787Z,3.17
2018-05-09T19:13:14.350Z,3.40
2018-05-09T19:18:17.414Z,3.10
2018-05-09T19:23:21.165Z,3.00
2018-05-09T19:28:24.504Z,3.50
2018-05-09T19:33:27.943Z,2.80
2018-05-09T19:38:31.241Z,3.20
2018-05-09T19:43:36.208Z,4.20
2018-05-09T19:48:39.596Z,3.60
2018-05-09T19:53:43.402Z,3.70
2018-05-09T19:58:46.439Z,3.50
2018-05-09T20:03:49.735Z,3.53
2018-05-09T20:08:52.810Z,3.63
2018-05-09T20:13:56.256Z,3.70
2018-05-09T20:18:59.766Z,3.50
2018-05-09T20:24:02.816Z,3.47
2018-05-09T20:29:05.978Z,3.77
2018-05-09T20:34:08.856Z,3.70
2018-05-09T20:39:12.068Z,4.90
2018-05-09T20:44:15.855Z,4.67
2018-05-09T20:49:18.900Z,4.87
2018-05-09T20:54:22.424Z,4.20
2018-05-09T20:59:25.543Z,4.90
2018-05-09T21:04:28.594Z,3.90
2018-05-09T21:09:31.825Z,5.53
2018-05-09T21:14:35.039Z,4.77
2018-05-09T21:19:37.897Z,4.10
2018-05-09T21:24:40.769Z,4.47
2018-05-09T21:29:43.670Z,4.90
2018-05-09T21:34:46.550Z,4.10
2018-05-09T21:39:49.594Z,5.50
2018-05-09T21:44:52.512Z,4.30
2018-05-09T21:49:55.654Z,5.20
2018-05-09T21:54:59.368Z,5.30
2018-05-09T22:00:03.415Z,4.23
2018-05-09T22:05:06.489Z,4.53
2018-05-09T22:10:09.715Z,4.60
2018-05-09T22:15:12.810Z,5.80
2018-05-09T22:20:16.417Z,5.00
2018-05-09T22:25:19.989Z,5.70
2018-05-09T22:30:22.909Z,4.53
2018-05-09T22:35:26.833Z,4.87
2018-05-09T22:40:30.328Z,5.40
2018-05-09T22:45:33.181Z,4.83
2018-05-09T22:50:36.022Z,4.70
2018-05-09T22:55:38.885Z,5.67
2018-05-09T23:00:41.792Z,6.00
2018-05-09T23:05:44.655Z,5.90
2018-05-09T23:10:47.836Z,9.40
2018-05-09T23:15:50.755Z,4.73
2018-05-09T23:20:53.788Z,7.13
2018-05-09T23:25:56.781Z,5.07
2018-05-09T23:31:14.188Z,5.50
2018-05-09T23:36:17.136Z,5.37
2018-05-09T23:41:20.205Z,5.80
2018-05-09T23:46:23.415Z,7.43
2018-05-09T23:51:26.243Z,7.13
2018-05-09T23:56:29.580Z,7.50
